KROW/ROW METAR and TAF weather

Enter ICAO airport designator
Station Type Date Time Source
KROW METAR 2019/11/15 04:51 UTC NOAA

KROW 150451Z AUTO 21006KT 10SM CLR 05/00 A3041 RMK AO2 SLP283 T00500000


Station Type Date Time Source
KROW Decoded METAR 2019/11/15 04:51 UTC NOAA

ROSWELL INDUSTRIAL AIR CENTR, NM, United States (KROW) 33-18N 104-32W 1112M
Nov 14, 2019 - 11:51 PM EST / 2019.11.15 0451 UTC
Wind: from the SSW (210 degrees) at 7 MPH (6 KT):0
Visibility: 10 mile(s):0
Sky conditions: clear
Temperature: 41.0 F (5.0 C)
Dew Point: 32.0 F (0.0 C)
Relative Humidity: 70%
Pressure (altimeter): 30.41 in. Hg (1029 hPa)
ob: KROW 150451Z AUTO 21006KT 10SM CLR 05/00 A3041 RMK AO2 SLP283 T00500000
cycle: 5

Station Type Date Time Source
KROW TAF 2019/11/15 06:27 UTC NOAA

TAF KROW 150525Z 1506/1606 20006KT P6SM FEW250
FM151800 17013KT P6SM SCT250

Example: see airport list